Unity, Wisconsin
Current Conditions -  °F | °C
As of 4:21 AM on Thursday 29 Jan 2015 (Local Time) from KMFI Reporting Station
Haze Haze  
Wind Chill: 16°   Ceiling: 300
Heat Index: 27°   Visibility: 2.5mi
Dew Point: 25°   Wind: 14mph
Humidity: 92%   Direction: 320°NW
Pressure: 29.79"   Gusts: NA
Location:  44.85°N, 90.31°W
Report Text: KMFI 291021Z AUTO 32012KT 2 1/2SM BR OVC003 M03/M04 A2979 RMK AO2 T10281039
Loading
Personal Weather Stations






























Interactive Weather Map New forecast layout! Learn more

10-Day Weather Forecast

Advertisements
Track Severe Weather on mobile